createdAt,value
2022-10-25T00:00:30.329Z,49.20
2022-10-25T00:01:01.906Z,49.05
2022-10-25T00:01:45.534Z,49.42
2022-10-25T00:02:23.538Z,53.03
2022-10-25T00:02:55.244Z,47.75
2022-10-25T00:03:26.869Z,51.08
2022-10-25T00:03:58.754Z,51.30
2022-10-25T00:04:30.272Z,43.75
2022-10-25T00:05:01.943Z,48.03
2022-10-25T00:05:33.855Z,49.22
2022-10-25T00:06:05.579Z,46.17
2022-10-25T00:06:37.145Z,55.00
2022-10-25T00:07:09.039Z,51.67
2022-10-25T00:07:40.924Z,49.25
2022-10-25T00:08:12.542Z,51.15
2022-10-25T00:08:44.250Z,47.20
2022-10-25T00:09:15.788Z,48.92
2022-10-25T00:09:47.310Z,48.97
2022-10-25T00:10:21.112Z,46.27
2022-10-25T00:10:56.298Z,46.70
2022-10-25T00:11:30.075Z,49.00
2022-10-25T00:12:01.708Z,48.88
2022-10-25T00:12:33.308Z,52.40
2022-10-25T00:13:05.707Z,51.30
2022-10-25T00:13:37.375Z,45.95
2022-10-25T00:14:09.054Z,49.80
2022-10-25T00:14:40.626Z,45.38
2022-10-25T00:15:15.198Z,48.10
2022-10-25T00:15:46.745Z,46.87
2022-10-25T00:16:21.019Z,44.97
2022-10-25T00:16:52.541Z,45.35
2022-10-25T00:17:24.154Z,49.88
2022-10-25T00:17:55.688Z,52.72
2022-10-25T00:18:27.261Z,48.40
2022-10-25T00:18:58.927Z,45.95
2022-10-25T00:19:30.498Z,45.55
2022-10-25T00:20:02.032Z,48.03
2022-10-25T00:20:36.487Z,50.20
2022-10-25T00:21:08.016Z,46.27
2022-10-25T00:21:39.683Z,49.58
2022-10-25T00:22:11.235Z,44.20
2022-10-25T00:22:42.939Z,46.33
2022-10-25T00:23:15.205Z,47.55
2022-10-25T00:23:47.233Z,51.78
2022-10-25T00:24:18.786Z,51.20
2022-10-25T00:24:50.322Z,49.70
2022-10-25T00:25:21.881Z,47.85
2022-10-25T00:26:01.682Z,50.33
2022-10-25T00:26:34.833Z,48.90
2022-10-25T00:27:06.675Z,51.30
2022-10-25T00:27:38.283Z,51.00
2022-10-25T00:28:09.797Z,51.75
2022-10-25T00:28:41.478Z,50.42
2022-10-25T00:29:13.150Z,51.80
2022-10-25T00:29:44.715Z,49.30
2022-10-25T00:30:16.283Z,47.17
2022-10-25T00:30:47.810Z,47.75
2022-10-25T00:31:19.328Z,55.22
2022-10-25T00:31:50.856Z,48.73
2022-10-25T00:32:22.391Z,53.92
2022-10-25T00:32:54.518Z,49.38
2022-10-25T00:33:26.034Z,55.00
2022-10-25T00:33:57.595Z,50.58
2022-10-25T00:34:29.164Z,51.72
2022-10-25T00:35:00.780Z,53.88
2022-10-25T00:35:32.295Z,49.70
2022-10-25T00:36:19.096Z,49.53
2022-10-25T00:36:50.622Z,52.78
2022-10-25T00:37:22.272Z,46.67
2022-10-25T00:37:53.835Z,53.03
2022-10-25T00:38:25.355Z,52.35
2022-10-25T00:38:58.957Z,52.92
2022-10-25T00:39:30.858Z,51.33
2022-10-25T00:40:02.445Z,51.63
2022-10-25T00:40:34.064Z,50.30
2022-10-25T00:41:06.370Z,52.00
2022-10-25T00:41:37.962Z,50.00
2022-10-25T00:42:15.651Z,54.33
2022-10-25T00:42:47.381Z,51.67
2022-10-25T00:43:39.371Z,53.97
2022-10-25T00:44:48.077Z,56.28
2022-10-25T00:45:23.563Z,48.45
2022-10-25T00:45:55.159Z,54.47
2022-10-25T00:46:32.063Z,55.50
2022-10-25T00:47:25.250Z,55.38
2022-10-25T00:48:02.292Z,53.03
2022-10-25T00:48:34.743Z,54.45
2022-10-25T00:49:14.236Z,53.03
2022-10-25T00:49:48.321Z,57.20
2022-10-25T00:50:34.828Z,56.10
2022-10-25T00:51:06.435Z,51.00
2022-10-25T00:51:43.253Z,54.42
2022-10-25T00:52:15.426Z,50.38
2022-10-25T00:52:51.503Z,54.33
2022-10-25T00:53:30.918Z,55.15
2022-10-25T00:54:02.589Z,55.28
2022-10-25T00:54:39.153Z,53.28
2022-10-25T00:55:13.245Z,51.17
2022-10-25T00:55:50.423Z,55.40
2022-10-25T00:56:31.961Z,55.25
2022-10-25T00:57:14.726Z,52.88
2022-10-25T00:58:03.925Z,51.72
2022-10-25T00:58:39.033Z,57.40
2022-10-25T00:59:14.710Z,52.78
2022-10-25T00:59:47.325Z,55.35
2022-10-25T01:00:19.180Z,52.78
2022-10-25T01:00:50.898Z,53.20
2022-10-25T01:01:24.538Z,52.28
2022-10-25T01:01:56.412Z,55.80
2022-10-25T01:02:28.309Z,52.25
2022-10-25T01:03:00.243Z,53.92
2022-10-25T01:03:31.839Z,56.58
2022-10-25T01:04:07.755Z,52.83
2022-10-25T01:04:39.730Z,51.92
2022-10-25T01:05:11.430Z,55.17
2022-10-25T01:05:44.094Z,59.10
2022-10-25T01:06:20.993Z,53.60
2022-10-25T01:06:53.628Z,55.70
2022-10-25T01:07:25.240Z,53.67
2022-10-25T01:07:56.963Z,49.92
2022-10-25T01:08:28.846Z,55.40
2022-10-25T01:09:02.226Z,50.58
2022-10-25T01:09:36.458Z,57.85
2022-10-25T01:10:08.129Z,53.53
2022-10-25T01:10:40.398Z,54.72
2022-10-25T01:11:12.332Z,53.53
2022-10-25T01:11:44.300Z,55.08
2022-10-25T01:12:15.808Z,56.38
2022-10-25T01:12:50.061Z,51.10
2022-10-25T01:13:23.775Z,55.78
2022-10-25T01:13:56.502Z,54.95
2022-10-25T01:14:28.821Z,56.25
2022-10-25T01:15:00.588Z,52.25
2022-10-25T01:15:52.366Z,58.08
2022-10-25T01:16:23.852Z,56.60
2022-10-25T01:17:18.334Z,53.67
2022-10-25T01:18:04.014Z,52.88
2022-10-25T01:19:00.034Z,58.10
2022-10-25T01:19:46.883Z,55.20
2022-10-25T01:20:43.008Z,54.67
2022-10-25T01:21:17.522Z,54.10
2022-10-25T01:21:53.464Z,58.38
2022-10-25T01:22:57.022Z,58.92
2022-10-25T01:23:47.180Z,52.63
2022-10-25T01:24:42.856Z,54.72
2022-10-25T01:25:45.494Z,55.40
2022-10-25T01:26:26.322Z,55.22
2022-10-25T01:27:03.779Z,54.08
2022-10-25T01:27:59.277Z,56.17
2022-10-25T01:29:00.471Z,47.72
2022-10-25T01:30:09.243Z,52.28
2022-10-25T01:30:40.722Z,55.67
2022-10-25T01:31:31.605Z,54.55
2022-10-25T01:32:23.895Z,55.28
2022-10-25T01:33:22.007Z,55.88
2022-10-25T01:34:08.379Z,50.88
2022-10-25T01:35:07.324Z,51.97
2022-10-25T01:36:00.593Z,46.70
2022-10-25T01:36:40.886Z,50.77
2022-10-25T01:37:24.666Z,47.15
2022-10-25T01:38:08.423Z,52.22
2022-10-25T01:39:11.557Z,50.53
2022-10-25T01:40:09.559Z,46.63
2022-10-25T01:40:47.075Z,45.85
2022-10-25T01:41:47.220Z,47.70
2022-10-25T01:42:53.497Z,48.28
2022-10-25T01:44:00.023Z,45.08
2022-10-25T01:44:34.302Z,44.40
2022-10-25T01:45:32.238Z,52.33
2022-10-25T01:46:39.269Z,47.13
2022-10-25T01:47:18.585Z,45.42
2022-10-25T01:47:59.832Z,48.88
2022-10-25T01:48:40.086Z,50.50
2022-10-25T01:49:37.466Z,47.78
2022-10-25T01:50:14.309Z,46.85
2022-10-25T01:50:47.849Z,49.35
2022-10-25T01:51:19.451Z,51.55
2022-10-25T01:51:50.971Z,47.38
2022-10-25T01:52:24.229Z,48.40
2022-10-25T01:52:56.152Z,49.47
2022-10-25T01:53:27.684Z,47.38
2022-10-25T01:53:59.208Z,45.05
2022-10-25T01:54:30.803Z,51.20
2022-10-25T01:55:02.872Z,44.13
2022-10-25T01:55:40.219Z,46.17
2022-10-25T01:56:19.475Z,42.80
2022-10-25T01:57:02.877Z,43.00
2022-10-25T01:57:55.619Z,45.97
2022-10-25T01:59:12.211Z,45.30
2022-10-25T02:00:04.374Z,39.42
2022-10-25T02:01:19.207Z,40.40
2022-10-25T02:01:59.898Z,40.35
2022-10-25T02:02:55.884Z,36.90
2022-10-25T02:03:42.083Z,39.38
2022-10-25T02:04:28.034Z,38.45
2022-10-25T02:05:25.907Z,39.95
2022-10-25T02:06:11.245Z,43.50
2022-10-25T02:07:02.090Z,41.10
2022-10-25T02:07:42.426Z,40.05
2022-10-25T02:08:29.114Z,41.67
2022-10-25T02:09:27.611Z,38.78
2022-10-25T02:10:07.985Z,38.90
2022-10-25T02:10:45.487Z,36.88
2022-10-25T02:11:30.298Z,39.10
2022-10-25T02:12:05.376Z,40.92
2022-10-25T02:13:01.332Z,38.10
2022-10-25T02:13:53.086Z,34.15
2022-10-25T02:14:35.824Z,40.47
2022-10-25T02:15:16.013Z,38.25
2022-10-25T02:16:01.117Z,39.90
2022-10-25T02:16:39.480Z,37.05
2022-10-25T02:17:16.498Z,38.08
2022-10-25T02:18:00.482Z,39.15
2022-10-25T02:18:35.910Z,40.00
2022-10-25T02:19:11.537Z,35.38
2022-10-25T02:19:51.469Z,40.00
2022-10-25T02:20:25.694Z,38.25
2022-10-25T02:20:58.695Z,37.30
2022-10-25T02:21:33.355Z,35.92
2022-10-25T02:22:09.143Z,38.05
2022-10-25T02:22:40.769Z,37.88
2022-10-25T02:23:14.817Z,39.92
2022-10-25T02:23:47.583Z,39.85
2022-10-25T02:24:23.811Z,39.00
2022-10-25T02:24:57.795Z,36.17
2022-10-25T02:25:32.636Z,36.35
2022-10-25T02:26:07.277Z,38.08
2022-10-25T02:26:42.214Z,36.07
2022-10-25T02:27:14.371Z,38.42
2022-10-25T02:27:47.130Z,34.25
2022-10-25T02:28:20.464Z,38.58
2022-10-25T02:28:53.324Z,38.17
2022-10-25T02:29:27.966Z,35.90
2022-10-25T02:29:59.968Z,31.77
2022-10-25T02:30:34.803Z,36.88
2022-10-25T02:31:10.491Z,33.70
2022-10-25T02:31:42.427Z,32.95
2022-10-25T02:32:13.966Z,37.13
2022-10-25T02:32:45.648Z,35.00
2022-10-25T02:33:17.457Z,37.30
2022-10-25T02:33:49.164Z,32.78
2022-10-25T02:34:21.379Z,36.90
2022-10-25T02:34:52.925Z,35.00
2022-10-25T02:35:24.443Z,31.58
2022-10-25T02:36:24.035Z,36.45
2022-10-25T02:36:55.588Z,34.03
2022-10-25T02:37:27.116Z,32.55
2022-10-25T02:37:58.638Z,34.27
2022-10-25T02:38:30.188Z,36.28
2022-10-25T02:39:03.043Z,33.53
2022-10-25T02:39:35.127Z,35.03
2022-10-25T02:40:07.983Z,35.22
2022-10-25T02:40:39.570Z,35.15
2022-10-25T02:41:11.947Z,32.90
2022-10-25T02:41:43.510Z,32.80
2022-10-25T02:42:15.049Z,31.70
2022-10-25T02:42:46.567Z,32.75
2022-10-25T02:43:18.124Z,32.80
2022-10-25T02:43:49.931Z,32.13
2022-10-25T02:44:21.529Z,34.42
2022-10-25T02:44:53.042Z,33.53
2022-10-25T02:45:24.550Z,33.80
2022-10-25T02:45:56.069Z,32.88
2022-10-25T02:46:27.589Z,30.80
2022-10-25T02:46:59.097Z,33.00
2022-10-25T02:47:30.891Z,31.45
2022-10-25T02:48:02.404Z,32.08
2022-10-25T02:48:34.183Z,30.53
2022-10-25T02:49:05.761Z,31.38
2022-10-25T02:49:37.416Z,36.13
2022-10-25T02:50:09.337Z,32.83
2022-10-25T02:50:40.859Z,33.88
2022-10-25T02:51:12.771Z,33.55
2022-10-25T02:51:44.320Z,31.80
2022-10-25T02:52:15.883Z,32.38
2022-10-25T02:52:47.553Z,33.67
2022-10-25T02:53:19.223Z,33.38
2022-10-25T02:53:50.767Z,33.50
2022-10-25T02:54:22.413Z,33.13
2022-10-25T02:54:53.947Z,33.10
2022-10-25T02:55:25.490Z,33.58
2022-10-25T02:56:08.066Z,32.40
2022-10-25T02:56:39.578Z,33.88
2022-10-25T02:57:11.100Z,33.25
2022-10-25T02:57:42.631Z,33.03
2022-10-25T02:58:14.212Z,33.38
2022-10-25T02:58:47.349Z,32.78
2022-10-25T02:59:19.887Z,33.90
2022-10-25T02:59:51.490Z,33.15
2022-10-25T03:00:23.006Z,33.20
2022-10-25T03:00:54.710Z,31.70
2022-10-25T03:01:26.650Z,33.30
2022-10-25T03:01:58.328Z,31.55
2022-10-25T03:02:29.924Z,29.88
2022-10-25T03:03:01.427Z,29.17
2022-10-25T03:03:33.411Z,32.67
2022-10-25T03:04:04.971Z,31.25
2022-10-25T03:04:36.490Z,28.97
2022-10-25T03:05:08.374Z,32.35
2022-10-25T03:05:39.884Z,31.77
2022-10-25T03:06:12.544Z,34.50
2022-10-25T03:06:44.054Z,31.88
2022-10-25T03:07:15.563Z,32.25
2022-10-25T03:07:47.103Z,33.35
2022-10-25T03:08:18.968Z,30.02
2022-10-25T03:08:50.600Z,26.30
2022-10-25T03:09:22.247Z,27.63
2022-10-25T03:09:53.754Z,29.13
2022-10-25T03:10:25.301Z,24.38
2022-10-25T03:10:56.981Z,22.67
2022-10-25T03:11:28.508Z,26.00
2022-10-25T03:12:00.044Z,26.25
2022-10-25T03:12:31.540Z,23.35
2022-10-25T03:13:03.139Z,24.80
2022-10-25T03:13:35.366Z,24.08
2022-10-25T03:14:06.884Z,24.00
2022-10-25T03:14:38.436Z,23.30
2022-10-25T03:15:10.220Z,23.13
2022-10-25T03:15:43.035Z,23.45
2022-10-25T03:16:14.552Z,20.67
2022-10-25T03:16:49.170Z,22.58
2022-10-25T03:17:20.708Z,25.35
2022-10-25T03:17:52.297Z,24.25
2022-10-25T03:18:23.987Z,22.75
2022-10-25T03:18:58.738Z,23.38
2022-10-25T03:19:30.298Z,25.92
2022-10-25T03:20:01.867Z,25.77
2022-10-25T03:20:33.487Z,27.53
2022-10-25T03:21:05.960Z,26.70
2022-10-25T03:21:39.953Z,27.63
2022-10-25T03:22:13.503Z,33.05
2022-10-25T03:22:45.081Z,32.15
2022-10-25T03:23:17.249Z,30.20
2022-10-25T03:23:48.745Z,32.42
2022-10-25T03:24:20.312Z,36.28
2022-10-25T03:24:51.827Z,33.90
2022-10-25T03:25:23.410Z,35.63
2022-10-25T03:25:56.411Z,40.57
2022-10-25T03:26:27.946Z,35.85
2022-10-25T03:27:00.352Z,35.72
2022-10-25T03:27:31.938Z,37.85
2022-10-25T03:28:03.958Z,39.08
2022-10-25T03:28:35.473Z,40.13
2022-10-25T03:29:07.210Z,39.78
2022-10-25T03:29:38.722Z,40.30
2022-10-25T03:30:12.103Z,38.28
2022-10-25T03:30:43.692Z,37.95
2022-10-25T03:31:17.277Z,38.87
2022-10-25T03:31:48.846Z,37.88
2022-10-25T03:32:20.364Z,38.67
2022-10-25T03:32:51.892Z,39.35
2022-10-25T03:33:25.144Z,42.80
2022-10-25T03:33:56.715Z,39.53
2022-10-25T03:34:28.330Z,39.90
2022-10-25T03:34:59.873Z,43.20
2022-10-25T03:35:31.472Z,40.83
2022-10-25T03:36:03.099Z,41.58
2022-10-25T03:36:34.618Z,40.07
2022-10-25T03:37:06.150Z,41.00
2022-10-25T03:37:37.670Z,39.00
2022-10-25T03:38:09.164Z,40.10
2022-10-25T03:38:40.681Z,34.47
2022-10-25T03:39:12.246Z,38.78
2022-10-25T03:39:43.778Z,36.72
2022-10-25T03:40:15.456Z,44.03
2022-10-25T03:40:47.032Z,37.20
2022-10-25T03:41:18.550Z,41.15
2022-10-25T03:41:50.478Z,37.43
2022-10-25T03:42:22.059Z,36.65
2022-10-25T03:42:53.643Z,38.50
2022-10-25T03:43:25.358Z,39.33
2022-10-25T03:43:56.896Z,33.58
2022-10-25T03:44:28.503Z,35.42
2022-10-25T03:45:00.026Z,37.33
2022-10-25T03:45:31.548Z,35.10
2022-10-25T03:46:03.240Z,34.58
2022-10-25T03:46:34.762Z,33.85
2022-10-25T03:47:06.316Z,37.30
2022-10-25T03:47:38.828Z,35.33
2022-10-25T03:48:10.415Z,36.28
2022-10-25T03:48:41.942Z,33.85
2022-10-25T03:49:13.447Z,33.92
2022-10-25T03:49:45.706Z,30.88
2022-10-25T03:50:17.314Z,33.75
2022-10-25T03:50:48.856Z,32.40
2022-10-25T03:51:20.515Z,31.60
2022-10-25T03:51:53.969Z,31.77
2022-10-25T03:52:29.301Z,31.03
2022-10-25T03:53:00.893Z,32.78
2022-10-25T03:53:33.464Z,31.40
2022-10-25T03:54:05.014Z,30.40
2022-10-25T03:54:36.694Z,29.10
2022-10-25T03:55:08.653Z,29.55
2022-10-25T03:55:40.199Z,29.10
2022-10-25T03:56:11.756Z,27.83
2022-10-25T03:56:43.364Z,28.33
2022-10-25T03:57:14.883Z,27.58
2022-10-25T03:57:46.555Z,30.83
2022-10-25T03:58:19.733Z,30.50
2022-10-25T03:58:51.338Z,30.10
2022-10-25T03:59:22.922Z,29.50
2022-10-25T03:59:54.502Z,31.77
2022-10-25T04:00:26.885Z,27.23
2022-10-25T04:01:00.046Z,26.08
2022-10-25T04:01:31.746Z,28.73
2022-10-25T04:02:03.464Z,27.58
2022-10-25T04:02:35.023Z,26.98
2022-10-25T04:03:45.160Z,27.20
2022-10-25T04:04:16.835Z,26.23
2022-10-25T04:04:48.367Z,25.08
2022-10-25T04:05:19.904Z,27.73
2022-10-25T04:05:51.453Z,26.05
2022-10-25T04:06:22.967Z,24.45
2022-10-25T04:06:54.503Z,27.80
2022-10-25T04:07:26.036Z,27.33
2022-10-25T04:07:57.804Z,26.60
2022-10-25T04:08:29.349Z,24.40
2022-10-25T04:09:00.875Z,22.25
2022-10-25T04:09:32.865Z,24.27
2022-10-25T04:10:04.893Z,26.80
2022-10-25T04:10:36.417Z,22.45
2022-10-25T04:11:07.943Z,27.23
2022-10-25T04:11:39.489Z,22.83
2022-10-25T04:12:11.110Z,22.05
2022-10-25T04:12:42.760Z,23.23
2022-10-25T04:13:14.316Z,23.88
2022-10-25T04:13:45.838Z,22.57
2022-10-25T04:14:18.154Z,22.77
2022-10-25T04:14:49.675Z,23.55
2022-10-25T04:15:21.659Z,27.38
2022-10-25T04:15:53.163Z,22.50
2022-10-25T04:16:25.582Z,22.80
2022-10-25T04:16:57.097Z,25.75
2022-10-25T04:17:28.688Z,21.10
2022-10-25T04:18:00.300Z,24.13
2022-10-25T04:18:31.823Z,23.55
2022-10-25T04:19:03.365Z,24.73
2022-10-25T04:19:34.907Z,24.10
2022-10-25T04:20:07.199Z,23.75
2022-10-25T04:20:38.715Z,23.25
2022-10-25T04:21:10.227Z,21.70
2022-10-25T04:21:41.907Z,22.85
2022-10-25T04:22:13.641Z,22.35
2022-10-25T04:22:45.278Z,22.58
2022-10-25T04:23:16.781Z,24.05
2022-10-25T04:23:49.983Z,21.30
2022-10-25T04:24:22.748Z,23.17
2022-10-25T04:24:54.323Z,21.25
2022-10-25T04:25:27.777Z,23.90
2022-10-25T04:25:59.358Z,22.20
2022-10-25T04:26:30.963Z,22.40
2022-10-25T04:27:02.504Z,22.10
2022-10-25T04:27:34.055Z,24.17
2022-10-25T04:28:05.649Z,22.35
2022-10-25T04:28:37.153Z,22.08
2022-10-25T04:29:11.048Z,21.83
2022-10-25T04:29:42.754Z,21.67
2022-10-25T04:30:14.403Z,21.27
2022-10-25T04:30:45.905Z,22.05
2022-10-25T04:31:18.195Z,22.77
2022-10-25T04:31:49.721Z,20.95
2022-10-25T04:32:21.236Z,24.13
2022-10-25T04:32:52.839Z,23.63
2022-10-25T04:33:24.409Z,22.08
2022-10-25T04:33:56.462Z,21.15
2022-10-25T04:34:27.991Z,24.42
2022-10-25T04:34:59.493Z,24.87
2022-10-25T04:35:31.077Z,22.85
2022-10-25T04:36:02.606Z,22.35
2022-10-25T04:36:34.158Z,20.65
2022-10-25T04:37:05.671Z,22.73
2022-10-25T04:37:37.224Z,24.38
2022-10-25T04:38:09.545Z,20.13
2022-10-25T04:38:41.040Z,22.92
2022-10-25T04:39:12.594Z,22.95
2022-10-25T04:39:44.146Z,23.40
2022-10-25T04:40:15.715Z,23.47
2022-10-25T04:40:54.104Z,22.17
2022-10-25T04:41:25.729Z,22.55
2022-10-25T04:41:57.343Z,21.77
2022-10-25T04:42:28.891Z,24.17
2022-10-25T04:43:02.484Z,22.08
2022-10-25T04:43:34.284Z,25.63
2022-10-25T04:44:05.808Z,22.98
2022-10-25T04:44:37.404Z,20.77
2022-10-25T04:45:09.431Z,21.40
2022-10-25T04:45:40.939Z,23.70
2022-10-25T04:46:13.140Z,23.38
2022-10-25T04:46:47.783Z,24.52
2022-10-25T04:47:20.523Z,21.90
2022-10-25T04:47:52.031Z,22.65
2022-10-25T04:48:23.672Z,23.48
2022-10-25T04:48:55.267Z,22.42
2022-10-25T04:49:26.863Z,23.00
2022-10-25T04:49:58.713Z,22.90
2022-10-25T04:50:30.307Z,24.05
2022-10-25T04:51:01.900Z,21.27
2022-10-25T04:51:34.333Z,25.17
2022-10-25T04:52:05.892Z,22.00
2022-10-25T04:52:37.438Z,23.85
2022-10-25T04:53:09.069Z,24.80
2022-10-25T04:53:40.613Z,23.17
2022-10-25T04:54:13.023Z,21.83
2022-10-25T04:54:44.566Z,23.70
2022-10-25T04:55:16.119Z,25.55
2022-10-25T04:55:57.570Z,23.48
2022-10-25T04:56:29.652Z,22.33
2022-10-25T04:57:01.305Z,22.85
2022-10-25T04:57:32.897Z,23.10
2022-10-25T04:58:05.060Z,25.40
2022-10-25T04:58:37.308Z,25.00
2022-10-25T04:59:09.440Z,24.05
2022-10-25T04:59:40.967Z,23.67
2022-10-25T05:00:13.031Z,22.23
2022-10-25T05:00:47.235Z,23.38
2022-10-25T05:01:19.331Z,23.15
2022-10-25T05:02:24.242Z,21.63
2022-10-25T05:02:55.991Z,23.92
2022-10-25T05:03:28.732Z,22.52
2022-10-25T05:04:00.252Z,22.00
2022-10-25T05:04:31.750Z,23.25
2022-10-25T05:05:03.365Z,24.75
2022-10-25T05:05:34.883Z,23.83
2022-10-25T05:06:07.748Z,24.10
2022-10-25T05:06:39.298Z,24.33
2022-10-25T05:07:10.925Z,24.30
2022-10-25T05:07:42.479Z,23.10
2022-10-25T05:08:14.023Z,23.60
2022-10-25T05:08:47.949Z,23.17
2022-10-25T05:09:19.462Z,21.75
2022-10-25T05:09:51.048Z,22.17
2022-10-25T05:10:22.632Z,24.35
2022-10-25T05:10:56.933Z,21.67
2022-10-25T05:11:28.457Z,23.85
2022-10-25T05:12:00.002Z,25.40
2022-10-25T05:12:31.511Z,24.67
2022-10-25T05:13:03.060Z,22.65
2022-10-25T05:13:35.892Z,25.55
2022-10-25T05:14:07.414Z,24.67
2022-10-25T05:14:38.962Z,24.27
2022-10-25T05:15:10.810Z,26.70
2022-10-25T05:15:42.428Z,23.35
2022-10-25T05:16:17.937Z,22.65
2022-10-25T05:16:49.473Z,21.67
2022-10-25T05:17:21.018Z,22.55
2022-10-25T05:17:56.579Z,25.63
2022-10-25T05:18:28.386Z,24.17
2022-10-25T05:19:01.154Z,24.52
2022-10-25T05:19:32.671Z,25.65
2022-10-25T05:20:04.572Z,22.92
2022-10-25T05:20:36.132Z,23.30
2022-10-25T05:21:07.794Z,24.48
2022-10-25T05:21:39.298Z,24.10
2022-10-25T05:22:10.890Z,23.35
2022-10-25T05:22:42.406Z,24.85
2022-10-25T05:23:13.912Z,26.63
2022-10-25T05:23:46.438Z,25.83
2022-10-25T05:24:18.006Z,23.88
2022-10-25T05:24:49.513Z,24.25
2022-10-25T05:25:21.624Z,26.25
2022-10-25T05:26:07.043Z,23.83
2022-10-25T05:26:38.559Z,22.70
2022-10-25T05:27:10.070Z,23.23
2022-10-25T05:27:41.956Z,23.90
2022-10-25T05:28:13.623Z,21.83
2022-10-25T05:28:47.643Z,20.80
2022-10-25T05:29:19.257Z,23.65
2022-10-25T05:29:50.752Z,22.92
2022-10-25T05:30:22.256Z,22.90
2022-10-25T05:30:53.758Z,23.02
2022-10-25T05:31:30.341Z,24.83
2022-10-25T05:32:01.965Z,22.40
2022-10-25T05:32:33.630Z,21.55
2022-10-25T05:33:05.151Z,21.55
2022-10-25T05:33:36.662Z,20.52
2022-10-25T05:34:10.250Z,23.20
2022-10-25T05:34:41.780Z,23.85
2022-10-25T05:35:13.398Z,20.90
2022-10-25T05:35:44.893Z,20.73
2022-10-25T05:36:16.836Z,23.08
2022-10-25T05:36:48.359Z,21.17
2022-10-25T05:37:19.903Z,22.60
2022-10-25T05:37:51.422Z,23.25
2022-10-25T05:38:22.944Z,22.38
2022-10-25T05:38:54.531Z,23.42
2022-10-25T05:39:26.180Z,23.00
2022-10-25T05:39:57.691Z,21.20
2022-10-25T05:40:29.212Z,23.42
2022-10-25T05:41:00.950Z,22.40
2022-10-25T05:41:34.810Z,23.30
2022-10-25T05:42:08.596Z,22.33
2022-10-25T05:42:40.100Z,22.45
2022-10-25T05:43:11.666Z,24.02
2022-10-25T05:43:43.962Z,22.67
2022-10-25T05:44:16.673Z,22.42
2022-10-25T05:44:48.253Z,21.80
2022-10-25T05:45:19.834Z,23.25
2022-10-25T05:45:52.278Z,21.55
2022-10-25T05:46:24.127Z,20.50
2022-10-25T05:46:55.801Z,22.58
2022-10-25T05:47:27.354Z,22.42
2022-10-25T05:47:59.125Z,22.08
2022-10-25T05:48:31.632Z,24.83
2022-10-25T05:49:04.035Z,21.65
2022-10-25T05:49:39.653Z,22.35
2022-10-25T05:50:11.504Z,24.10
2022-10-25T05:50:43.102Z,23.77
2022-10-25T05:51:34.767Z,20.95
2022-10-25T05:52:07.310Z,21.90
2022-10-25T05:52:43.233Z,22.80
2022-10-25T05:53:14.785Z,22.08
2022-10-25T05:53:48.728Z,19.58
2022-10-25T05:54:20.346Z,21.48
2022-10-25T05:54:51.855Z,19.42
2022-10-25T05:55:23.404Z,20.83
2022-10-25T05:55:54.931Z,23.23
2022-10-25T05:56:31.427Z,18.60
2022-10-25T05:57:03.146Z,21.45
2022-10-25T05:57:34.727Z,21.88
2022-10-25T05:58:06.273Z,20.63
2022-10-25T05:58:38.234Z,20.60
2022-10-25T05:59:14.712Z,20.08
2022-10-25T05:59:46.334Z,21.35
2022-10-25T06:00:18.059Z,22.98
2022-10-25T06:00:49.607Z,21.80
2022-10-25T06:01:22.432Z,22.00
2022-10-25T06:01:54.177Z,23.50
2022-10-25T06:02:25.846Z,20.05
2022-10-25T06:03:01.824Z,22.73
2022-10-25T06:03:34.381Z,20.77
2022-10-25T06:04:06.998Z,20.48
2022-10-25T06:04:38.599Z,21.10
2022-10-25T06:05:10.114Z,20.30
2022-10-25T06:05:42.406Z,20.48
2022-10-25T06:06:14.003Z,21.23
2022-10-25T06:06:47.302Z,21.57
2022-10-25T06:07:18.856Z,20.13
2022-10-25T06:07:50.460Z,19.88
2022-10-25T06:08:22.029Z,22.45
2022-10-25T06:09:03.060Z,21.25
2022-10-25T06:09:34.579Z,20.95
2022-10-25T06:10:10.384Z,22.88
2022-10-25T06:10:42.369Z,21.75
2022-10-25T06:11:17.690Z,23.52
2022-10-25T06:11:49.194Z,21.10
2022-10-25T06:12:20.762Z,25.30
2022-10-25T06:12:53.680Z,22.20
2022-10-25T06:13:25.216Z,24.83
2022-10-25T06:13:56.791Z,23.15
2022-10-25T06:14:28.302Z,25.38
2022-10-25T06:14:59.827Z,25.77
2022-10-25T06:15:31.885Z,26.88
2022-10-25T06:16:05.694Z,25.85
2022-10-25T06:16:38.017Z,24.05
2022-10-25T06:17:09.562Z,26.67
2022-10-25T06:17:41.070Z,23.93
2022-10-25T06:18:12.588Z,23.55
2022-10-25T06:18:44.534Z,24.40
2022-10-25T06:19:16.051Z,22.58
2022-10-25T06:19:47.556Z,21.52
2022-10-25T06:20:19.075Z,23.27
2022-10-25T06:20:50.595Z,23.15
2022-10-25T06:21:27.157Z,25.75
2022-10-25T06:21:58.742Z,21.63
2022-10-25T06:22:30.243Z,23.30
2022-10-25T06:23:01.764Z,22.63
2022-10-25T06:23:35.997Z,22.70
2022-10-25T06:24:09.314Z,24.08
2022-10-25T06:24:40.838Z,22.83
2022-10-25T06:25:12.371Z,22.45
2022-10-25T06:25:43.900Z,22.65
2022-10-25T06:26:18.385Z,25.45
2022-10-25T06:26:50.090Z,23.17
2022-10-25T06:27:21.606Z,21.92
2022-10-25T06:27:53.133Z,23.85
2022-10-25T06:28:24.659Z,22.07
2022-10-25T06:29:01.764Z,23.90
2022-10-25T06:29:33.604Z,23.10
2022-10-25T06:30:05.796Z,23.27
2022-10-25T06:30:37.358Z,24.48
2022-10-25T06:31:14.257Z,20.63
2022-10-25T06:31:45.763Z,22.75
2022-10-25T06:32:17.297Z,26.20
2022-10-25T06:32:49.185Z,24.95
2022-10-25T06:33:24.485Z,25.50
2022-10-25T06:34:00.770Z,24.37
2022-10-25T06:34:32.315Z,23.95
2022-10-25T06:35:05.027Z,20.83
2022-10-25T06:35:36.571Z,22.05
2022-10-25T06:36:13.352Z,21.17
2022-10-25T06:36:44.947Z,21.27
2022-10-25T06:37:16.766Z,20.33
2022-10-25T06:37:48.284Z,22.05
2022-10-25T06:38:19.799Z,19.13
2022-10-25T06:38:51.606Z,21.05
2022-10-25T06:39:23.173Z,20.50
2022-10-25T06:39:54.743Z,18.73
2022-10-25T06:40:26.278Z,18.67
2022-10-25T06:41:03.114Z,19.75
2022-10-25T06:41:37.044Z,16.80
2022-10-25T06:42:09.099Z,17.02
2022-10-25T06:42:40.693Z,18.70
2022-10-25T06:43:12.198Z,16.75
2022-10-25T06:43:43.992Z,16.98
2022-10-25T06:44:15.515Z,16.63
2022-10-25T06:44:47.027Z,15.83
2022-10-25T06:45:18.535Z,16.30
2022-10-25T06:45:50.050Z,18.75
2022-10-25T06:46:33.011Z,18.13
2022-10-25T06:47:16.994Z,17.13
2022-10-25T06:47:49.294Z,15.57
2022-10-25T06:48:21.242Z,17.42
2022-10-25T06:48:54.595Z,16.30
2022-10-25T06:49:26.619Z,16.23
2022-10-25T06:49:58.265Z,16.13
2022-10-25T06:50:29.837Z,16.77
2022-10-25T06:51:05.982Z,15.63
2022-10-25T06:51:37.573Z,17.27
2022-10-25T06:52:09.099Z,15.27
2022-10-25T06:52:40.637Z,16.70
2022-10-25T06:53:12.157Z,16.92
2022-10-25T06:53:43.995Z,17.30
2022-10-25T06:54:15.513Z,17.98
2022-10-25T06:54:47.038Z,15.18
2022-10-25T06:55:18.549Z,16.90
2022-10-25T06:55:50.056Z,13.63
2022-10-25T06:56:21.602Z,14.75
2022-10-25T06:56:53.129Z,14.77
2022-10-25T06:57:24.628Z,15.75
2022-10-25T06:57:57.292Z,13.18
2022-10-25T06:58:33.535Z,15.93
2022-10-25T06:59:07.443Z,15.35
2022-10-25T06:59:38.987Z,15.00
2022-10-25T07:00:11.282Z,14.40
2022-10-25T07:00:44.806Z,15.30
2022-10-25T07:01:20.484Z,15.27
2022-10-25T07:01:52.592Z,12.00
2022-10-25T07:02:24.364Z,14.43
2022-10-25T07:02:57.619Z,15.05
2022-10-25T07:03:34.766Z,13.40
2022-10-25T07:04:06.314Z,13.95
2022-10-25T07:04:37.835Z,15.15
2022-10-25T07:05:09.373Z,13.80
2022-10-25T07:05:40.907Z,13.32
2022-10-25T07:06:14.468Z,14.15
2022-10-25T07:06:47.034Z,12.73
2022-10-25T07:07:19.514Z,15.63
2022-10-25T07:07:51.102Z,12.48
2022-10-25T07:08:23.058Z,14.48
2022-10-25T07:08:56.837Z,14.23
2022-10-25T07:09:29.446Z,13.57
2022-10-25T07:10:01.156Z,16.23
2022-10-25T07:10:32.698Z,15.10
2022-10-25T07:11:04.803Z,13.68
2022-10-25T07:11:36.687Z,17.63
2022-10-25T07:12:12.423Z,12.77
2022-10-25T07:12:44.601Z,14.38
2022-10-25T07:13:16.131Z,15.90
2022-10-25T07:13:47.860Z,16.17
2022-10-25T07:14:19.493Z,15.55
2022-10-25T07:14:51.028Z,14.18
2022-10-25T07:15:24.997Z,13.05
2022-10-25T07:16:07.239Z,15.13
2022-10-25T07:16:38.937Z,15.55
2022-10-25T07:17:10.469Z,15.43
2022-10-25T07:17:42.018Z,14.60
2022-10-25T07:18:13.950Z,15.73
2022-10-25T07:18:46.140Z,14.60
2022-10-25T07:19:17.848Z,14.55
2022-10-25T07:19:49.371Z,16.23
2022-10-25T07:20:20.938Z,14.10
2022-10-25T07:20:52.457Z,15.30
2022-10-25T07:21:23.979Z,14.75